Alpine, Arizona
Current Conditions -  °F | °C
As of 3:54 AM on Saturday 20 Dec 2014 (Local Time) from KSJN Reporting Station
Clear Clear  
Wind Chill: -4°   Ceiling: Unl
Heat Index: -4°   Visibility: 10mi
Dew Point: -6°   Wind: 3mph
Humidity: 91%   Direction: 130°SE
Pressure: 30.17"   Gusts: NA
Location:  33.85°N, 109.14°W
Report Text: KSJN 201054Z AUTO 13003KT 10SM CLR M04/M06 A3017 RMK AO2 SLP214 T10441056
Loading
Personal Weather Stations






























Interactive Weather Map New forecast layout! Learn more

10-Day Weather Forecast

Advertisements
Track Severe Weather on mobile